VYMD/MDL METAR and TAF weather

Enter ICAO airport designator
Station Type Date Time Source
VYMD METAR 2020/07/11 11:30 UTC NOAA

VYMD 111130Z 14008G16KT 7000 SCT020 FEW025CB FEW130 35/24 Q1000


Station Type Date Time Source
VYMD Decoded METAR 2020/07/11 11:30 UTC NOAA

Station name not available
Jul 11, 2020 - 07:30 AM EDT / 2020.07.11 1130 UTC
Wind: from the SE (140 degrees) at 9 MPH (8 KT) gusting to 18 MPH (16 KT):0
Visibility: 4 mile(s):0
Sky conditions: partly cloudy
Weather: Cumulonimbus clouds observed
Temperature: 95 F (35 C)
Heat index: 107.4 F (41.9 C):1
Dew Point: 75 F (24 C)
Relative Humidity: 53%
Pressure (altimeter): 29.53 in. Hg (1000 hPa)
ob: VYMD 111130Z 14008G16KT 7000 SCT020 FEW025CB FEW130 35/24 Q1000
cycle: 11

Station Type Date Time Source
VYMD TAF 2020/07/11 18:00 UTC NOAA

TAF VYMD 111700Z 1118/1218 14010KT 7000 BKN020 BKN120
TEMPO 1118/1124 18009G18KT 6000 BKN020 FEW025CB BKN100

Example: see airport list